createdAt,value
2022-08-25T00:01:53.791Z,72.02
2022-08-25T00:04:23.269Z,72.13
2022-08-25T00:06:52.963Z,72.33
2022-08-25T00:09:23.349Z,72.19
2022-08-25T00:11:52.450Z,73.78
2022-08-25T00:14:24.461Z,73.16
2022-08-25T00:16:52.263Z,73.28
2022-08-25T00:19:27.624Z,71.92
2022-08-25T00:21:56.433Z,71.36
2022-08-25T00:24:25.092Z,71.96
2022-08-25T00:26:56.438Z,71.78
2022-08-25T00:29:26.406Z,72.54
2022-08-25T00:31:55.679Z,72.33
2022-08-25T00:34:34.366Z,72.06
2022-08-25T00:37:05.049Z,71.20
2022-08-25T00:39:33.044Z,70.99
2022-08-25T00:42:01.020Z,70.93
2022-08-25T00:44:31.019Z,71.54
2022-08-25T00:47:01.065Z,71.42
2022-08-25T00:49:37.295Z,71.25
2022-08-25T00:52:10.044Z,72.05
2022-08-25T00:54:37.930Z,72.49
2022-08-25T00:57:07.761Z,74.06
2022-08-25T00:59:36.052Z,74.13
2022-08-25T01:02:07.925Z,73.46
2022-08-25T01:04:48.741Z,73.33
2022-08-25T01:07:20.020Z,73.01
2022-08-25T01:09:52.590Z,73.61
2022-08-25T01:12:20.996Z,74.13
2022-08-25T01:14:50.049Z,74.56
2022-08-25T01:17:18.369Z,75.14
2022-08-25T01:19:46.420Z,74.95
2022-08-25T01:22:14.029Z,75.05
2022-08-25T01:24:53.382Z,75.18
2022-08-25T01:27:21.306Z,74.38
2022-08-25T01:29:49.237Z,74.26
2022-08-25T01:32:16.818Z,75.10
2022-08-25T01:34:45.934Z,74.16
2022-08-25T01:37:15.783Z,73.90
2022-08-25T01:39:44.343Z,76.40
2022-08-25T01:42:17.947Z,77.35
2022-08-25T01:44:47.969Z,76.27
2022-08-25T01:47:16.191Z,76.59
2022-08-25T01:49:43.868Z,76.01
2022-08-25T01:52:28.873Z,76.13
2022-08-25T01:54:56.651Z,76.17
2022-08-25T01:57:24.543Z,76.11
2022-08-25T01:59:52.488Z,78.22
2022-08-25T02:02:20.290Z,79.55
2022-08-25T02:04:48.745Z,81.58
2022-08-25T02:07:18.788Z,83.02
2022-08-25T02:09:47.649Z,82.96
2022-08-25T02:12:15.505Z,84.05
2022-08-25T02:14:43.503Z,83.91
2022-08-25T02:17:11.005Z,83.74
2022-08-25T02:19:39.034Z,82.54
2022-08-25T02:22:07.312Z,80.93
2022-08-25T02:24:35.161Z,80.66
2022-08-25T02:27:04.317Z,79.90
2022-08-25T02:29:32.443Z,79.42
2022-08-25T02:32:00.425Z,80.00
2022-08-25T02:34:28.104Z,80.69
2022-08-25T02:36:55.700Z,80.66
2022-08-25T02:39:23.372Z,80.54
2022-08-25T02:41:51.557Z,80.37
2022-08-25T02:44:19.096Z,80.95
2022-08-25T02:46:46.724Z,80.94
2022-08-25T02:49:14.690Z,81.16
2022-08-25T02:51:42.999Z,81.81
2022-08-25T02:54:11.408Z,82.05
2022-08-25T02:56:40.188Z,81.98
2022-08-25T02:59:08.149Z,82.18
2022-08-25T03:01:35.811Z,83.14
2022-08-25T03:04:03.910Z,82.99
2022-08-25T03:06:32.188Z,82.36
2022-08-25T03:09:00.080Z,83.34
2022-08-25T03:11:28.756Z,83.90
2022-08-25T03:13:56.748Z,84.17
2022-08-25T03:16:27.707Z,84.05
2022-08-25T03:18:56.950Z,84.54
2022-08-25T03:21:26.493Z,84.91
2022-08-25T03:23:54.527Z,84.95
2022-08-25T03:26:41.718Z,84.12
2022-08-25T03:29:10.574Z,83.69
2022-08-25T03:31:39.210Z,84.01
2022-08-25T03:34:07.006Z,83.53
2022-08-25T03:36:34.820Z,83.40
2022-08-25T03:39:02.727Z,82.92
2022-08-25T03:41:32.822Z,83.38
2022-08-25T03:44:01.494Z,82.48
2022-08-25T03:46:33.205Z,82.19
2022-08-25T03:49:03.040Z,83.03
2022-08-25T03:51:40.640Z,82.61
2022-08-25T03:54:10.967Z,82.79
2022-08-25T03:56:39.716Z,82.80
2022-08-25T03:59:10.044Z,83.20
2022-08-25T04:01:39.303Z,84.11
2022-08-25T04:04:09.169Z,84.62
2022-08-25T04:06:39.106Z,85.10
2022-08-25T04:09:07.379Z,85.44
2022-08-25T04:11:36.256Z,84.82
2022-08-25T04:14:05.069Z,84.94
2022-08-25T04:16:35.184Z,85.01
2022-08-25T04:19:06.328Z,85.70
2022-08-25T04:21:34.882Z,84.30
2022-08-25T04:24:03.765Z,84.50
2022-08-25T04:26:38.595Z,84.93
2022-08-25T04:29:09.218Z,85.60
2022-08-25T04:31:40.664Z,85.36
2022-08-25T04:34:28.446Z,85.08
2022-08-25T04:36:57.759Z,84.74
2022-08-25T04:39:25.887Z,84.20
2022-08-25T04:41:54.169Z,83.83
2022-08-25T04:44:22.103Z,83.70
2022-08-25T04:46:50.052Z,85.35
2022-08-25T04:49:18.508Z,84.62
2022-08-25T04:51:46.152Z,84.02
2022-08-25T04:54:21.722Z,83.54
2022-08-25T04:56:54.184Z,83.00
2022-08-25T04:59:22.800Z,82.60
2022-08-25T05:01:52.282Z,83.72
2022-08-25T05:04:28.343Z,84.69
2022-08-25T05:06:57.476Z,84.11
2022-08-25T05:09:26.788Z,85.00
2022-08-25T05:11:54.916Z,84.30
2022-08-25T05:14:26.361Z,84.57
2022-08-25T05:16:55.967Z,84.03
2022-08-25T05:19:24.633Z,84.62
2022-08-25T05:21:53.889Z,84.17
2022-08-25T05:24:22.267Z,82.52
2022-08-25T05:26:50.097Z,81.86
2022-08-25T05:29:18.101Z,80.84
2022-08-25T05:31:50.048Z,79.17
2022-08-25T05:34:19.786Z,78.72
2022-08-25T05:36:48.714Z,78.32
2022-08-25T05:39:16.507Z,79.36
2022-08-25T05:41:44.675Z,80.19
2022-08-25T05:44:12.942Z,79.86
2022-08-25T05:46:41.064Z,78.84
2022-08-25T05:49:08.975Z,78.48
2022-08-25T05:51:36.893Z,77.45
2022-08-25T05:54:05.439Z,77.04
2022-08-25T05:56:33.471Z,77.07
2022-08-25T05:59:01.910Z,75.66
2022-08-25T06:01:50.556Z,73.86
2022-08-25T06:04:19.488Z,74.24
2022-08-25T06:06:47.438Z,73.67
2022-08-25T06:09:15.134Z,71.44
2022-08-25T06:11:43.058Z,70.98
2022-08-25T06:14:11.835Z,69.65
2022-08-25T06:16:40.286Z,66.08
2022-08-25T06:19:10.098Z,65.26
2022-08-25T06:21:41.444Z,65.42
2022-08-25T06:24:15.215Z,65.75
2022-08-25T06:26:44.227Z,67.22
2022-08-25T06:29:14.104Z,64.67
2022-08-25T06:31:42.695Z,60.34
2022-08-25T06:34:11.582Z,62.54
2022-08-25T06:36:40.673Z,62.04
2022-08-25T06:39:10.518Z,63.16
2022-08-25T06:41:39.560Z,60.60
2022-08-25T06:44:07.689Z,59.67
2022-08-25T06:46:37.087Z,59.04
2022-08-25T06:49:06.950Z,57.35
2022-08-25T06:51:36.258Z,56.91
2022-08-25T06:54:06.915Z,56.72
2022-08-25T06:56:35.142Z,57.47
2022-08-25T06:59:05.133Z,57.17
2022-08-25T07:01:33.411Z,55.86
2022-08-25T07:04:04.252Z,55.05
2022-08-25T07:06:37.838Z,55.53
2022-08-25T07:09:08.667Z,54.38
2022-08-25T07:11:36.812Z,53.18
2022-08-25T07:14:06.940Z,52.79
2022-08-25T07:16:36.078Z,51.95
2022-08-25T07:19:05.626Z,51.78
2022-08-25T07:21:39.151Z,51.26
2022-08-25T07:24:09.936Z,51.20
2022-08-25T07:26:39.853Z,50.30
2022-08-25T07:29:17.088Z,49.75
2022-08-25T07:31:45.591Z,50.64
2022-08-25T07:34:32.482Z,50.92
2022-08-25T07:37:00.143Z,51.37
2022-08-25T07:39:29.109Z,50.60
2022-08-25T07:41:57.890Z,51.15
2022-08-25T07:44:28.177Z,50.16
2022-08-25T07:46:56.764Z,49.50
2022-08-25T07:49:36.005Z,50.07
2022-08-25T07:52:08.970Z,51.70
2022-08-25T07:54:38.425Z,50.47
2022-08-25T07:57:10.021Z,50.46
2022-08-25T07:59:42.235Z,49.14
2022-08-25T08:02:18.378Z,48.47
2022-08-25T08:04:50.179Z,48.61
2022-08-25T08:07:20.261Z,48.81
2022-08-25T08:09:56.033Z,48.30
2022-08-25T08:12:28.589Z,47.92
2022-08-25T08:14:56.819Z,47.81
2022-08-25T08:17:25.297Z,47.83
2022-08-25T08:19:53.320Z,47.15
2022-08-25T08:22:21.111Z,46.83
2022-08-25T08:24:54.315Z,47.24
2022-08-25T08:27:24.642Z,47.58
2022-08-25T08:29:53.733Z,47.02
2022-08-25T08:32:23.154Z,46.26
2022-08-25T08:34:59.643Z,45.67
2022-08-25T08:37:28.121Z,46.07
2022-08-25T08:39:55.805Z,45.88
2022-08-25T08:42:47.064Z,47.92
2022-08-25T08:45:21.378Z,47.16
2022-08-25T08:48:10.069Z,46.52
2022-08-25T08:51:17.218Z,45.11
2022-08-25T08:53:47.851Z,45.18
2022-08-25T08:56:22.261Z,45.71
2022-08-25T08:58:55.856Z,44.67
2022-08-25T09:01:45.507Z,43.70
2022-08-25T09:04:24.328Z,43.30
2022-08-25T09:06:52.296Z,42.71
2022-08-25T09:09:35.760Z,43.16
2022-08-25T09:12:17.164Z,43.84
2022-08-25T09:15:23.446Z,44.42
2022-08-25T09:18:05.322Z,44.70
2022-08-25T09:20:55.278Z,43.09
2022-08-25T09:23:37.091Z,42.37
2022-08-25T09:26:34.052Z,41.34
2022-08-25T09:29:16.253Z,40.63
2022-08-25T09:31:45.098Z,40.76
2022-08-25T09:34:28.441Z,40.60
2022-08-25T09:36:56.426Z,39.73
2022-08-25T09:39:25.079Z,39.02
2022-08-25T09:42:00.432Z,38.83
2022-08-25T09:44:32.697Z,36.14
2022-08-25T09:47:02.194Z,35.74
2022-08-25T09:49:40.294Z,36.24
2022-08-25T09:52:41.383Z,34.67
2022-08-25T09:55:09.536Z,33.25
2022-08-25T09:57:48.930Z,31.57
2022-08-25T10:00:35.171Z,30.45
2022-08-25T10:03:11.982Z,30.98
2022-08-25T10:05:49.913Z,30.22
2022-08-25T10:08:44.716Z,30.70
2022-08-25T10:11:15.903Z,28.13
2022-08-25T10:13:51.474Z,27.54
2022-08-25T10:16:27.760Z,28.77
2022-08-25T10:19:02.603Z,30.49
2022-08-25T10:21:30.679Z,31.32
2022-08-25T10:24:01.561Z,30.30
2022-08-25T10:26:43.928Z,29.45
2022-08-25T10:29:29.382Z,27.81
2022-08-25T10:32:19.132Z,28.07
2022-08-25T10:34:56.281Z,27.52
2022-08-25T10:37:43.785Z,26.29
2022-08-25T10:40:28.487Z,25.81
2022-08-25T10:43:08.648Z,26.63
2022-08-25T10:45:48.087Z,26.12
2022-08-25T10:48:26.682Z,27.32
2022-08-25T10:51:25.274Z,27.92
2022-08-25T10:54:05.036Z,26.79
2022-08-25T10:56:41.806Z,27.30
2022-08-25T10:59:20.763Z,25.87
2022-08-25T11:01:55.169Z,23.66
2022-08-25T11:04:30.422Z,24.71
2022-08-25T11:07:14.425Z,24.56
2022-08-25T11:09:47.867Z,22.86
2022-08-25T11:12:27.633Z,23.48
2022-08-25T11:15:12.777Z,25.11
2022-08-25T11:17:46.000Z,23.44
2022-08-25T11:20:27.011Z,24.68
2022-08-25T11:23:13.071Z,23.64
2022-08-25T11:25:47.751Z,24.52
2022-08-25T11:28:26.639Z,23.59
2022-08-25T11:30:58.548Z,24.03
2022-08-25T11:33:30.550Z,25.21
2022-08-25T11:36:06.878Z,24.51
2022-08-25T11:39:00.579Z,24.42
2022-08-25T11:41:37.935Z,24.18
2022-08-25T11:44:15.048Z,23.89
2022-08-25T11:47:01.210Z,23.99
2022-08-25T11:49:44.885Z,22.86
2022-08-25T11:52:42.731Z,24.91
2022-08-25T11:55:23.126Z,24.28
2022-08-25T11:58:12.608Z,26.01
2022-08-25T12:00:45.186Z,24.95
2022-08-25T12:03:50.814Z,24.97
2022-08-25T12:06:25.068Z,24.77
2022-08-25T12:08:54.337Z,24.14
2022-08-25T12:11:45.887Z,24.91
2022-08-25T12:14:23.010Z,24.40
2022-08-25T12:16:52.017Z,25.24
2022-08-25T12:19:28.555Z,25.37
2022-08-25T12:22:03.459Z,24.47
2022-08-25T12:24:47.849Z,24.75
2022-08-25T12:27:29.027Z,24.67
2022-08-25T12:30:27.520Z,23.17
2022-08-25T12:33:13.624Z,23.25
2022-08-25T12:35:52.883Z,24.21
2022-08-25T12:38:52.073Z,23.92
2022-08-25T12:41:30.928Z,24.04
2022-08-25T12:44:34.915Z,24.37
2022-08-25T12:47:23.479Z,24.45
2022-08-25T12:49:51.747Z,22.75
2022-08-25T12:52:27.961Z,23.65
2022-08-25T12:54:59.691Z,23.28
2022-08-25T12:57:40.336Z,24.44
2022-08-25T13:00:18.384Z,24.03
2022-08-25T13:02:54.226Z,24.12
2022-08-25T13:06:00.238Z,23.06
2022-08-25T13:08:33.977Z,21.89
2022-08-25T13:11:13.995Z,20.75
2022-08-25T13:14:06.541Z,19.50
2022-08-25T13:16:35.169Z,19.51
2022-08-25T13:19:08.248Z,19.46
2022-08-25T13:21:39.795Z,18.69
2022-08-25T13:24:22.563Z,19.17
2022-08-25T13:26:57.297Z,18.59
2022-08-25T13:29:53.068Z,18.73
2022-08-25T13:32:34.309Z,17.38
2022-08-25T13:35:21.668Z,19.02
2022-08-25T13:37:50.607Z,19.34
2022-08-25T13:40:26.812Z,21.10
2022-08-25T13:43:01.234Z,20.56
2022-08-25T13:45:40.994Z,19.98
2022-08-25T13:48:21.096Z,19.22
2022-08-25T13:50:52.705Z,18.99
2022-08-25T13:53:30.367Z,18.46
2022-08-25T13:56:01.106Z,17.87
2022-08-25T13:58:45.123Z,18.51
2022-08-25T14:01:48.413Z,18.29
2022-08-25T14:04:22.882Z,18.58
2022-08-25T14:07:05.655Z,17.82
2022-08-25T14:09:47.652Z,18.30
2022-08-25T14:12:45.551Z,17.42
2022-08-25T14:15:21.940Z,17.27
2022-08-25T14:18:09.439Z,16.28
2022-08-25T14:20:50.586Z,17.30
2022-08-25T14:23:25.928Z,18.04
2022-08-25T14:25:56.603Z,17.56
2022-08-25T14:28:29.148Z,18.15
2022-08-25T14:31:01.436Z,17.40
2022-08-25T14:33:36.727Z,16.90
2022-08-25T14:36:06.331Z,17.56
2022-08-25T14:38:38.723Z,17.44
2022-08-25T14:43:40.055Z,17.82
2022-08-25T14:46:26.539Z,18.87
2022-08-25T14:49:00.606Z,18.75
2022-08-25T14:51:30.090Z,17.58
2022-08-25T14:54:02.605Z,16.67
2022-08-25T14:56:31.446Z,16.70
2022-08-25T14:59:00.542Z,16.84
2022-08-25T15:01:30.200Z,16.78
2022-08-25T15:04:06.901Z,16.44
2022-08-25T15:06:37.034Z,16.55
2022-08-25T15:09:11.030Z,16.98
2022-08-25T15:11:42.329Z,16.99
2022-08-25T15:14:12.348Z,18.15
2022-08-25T15:16:52.752Z,17.86
2022-08-25T15:19:24.345Z,18.06
2022-08-25T15:21:52.279Z,18.28
2022-08-25T15:24:22.734Z,18.20
2022-08-25T15:26:56.539Z,17.80
2022-08-25T15:29:27.404Z,18.16
2022-08-25T15:31:56.216Z,17.82
2022-08-25T15:34:23.837Z,17.40
2022-08-25T15:36:51.929Z,18.02
2022-08-25T15:39:20.393Z,18.55
2022-08-25T15:41:49.516Z,19.93
2022-08-25T15:44:18.088Z,18.30
2022-08-25T15:46:49.494Z,17.90
2022-08-25T15:49:20.768Z,17.59
2022-08-25T15:51:55.814Z,18.29
2022-08-25T15:54:26.915Z,17.94
2022-08-25T15:56:56.589Z,18.08
2022-08-25T15:59:26.849Z,17.74
2022-08-25T16:01:55.748Z,19.97
2022-08-25T16:04:25.163Z,20.36
2022-08-25T16:06:54.418Z,19.38
2022-08-25T16:09:23.984Z,19.61
2022-08-25T16:11:56.529Z,18.43
2022-08-25T16:14:26.215Z,19.29
2022-08-25T16:16:58.301Z,19.81
2022-08-25T16:19:29.564Z,19.62
2022-08-25T16:21:58.427Z,18.97
2022-08-25T16:24:28.208Z,18.80
2022-08-25T16:27:11.536Z,18.76
2022-08-25T16:29:42.567Z,18.83
2022-08-25T16:32:13.640Z,19.46
2022-08-25T16:34:42.748Z,19.65
2022-08-25T16:37:12.472Z,19.53
2022-08-25T16:39:44.138Z,19.48
2022-08-25T16:42:20.488Z,21.17
2022-08-25T16:44:53.965Z,21.05
2022-08-25T16:47:25.197Z,21.75
2022-08-25T16:49:54.619Z,22.09
2022-08-25T16:52:54.326Z,22.35
2022-08-25T16:55:23.205Z,21.89
2022-08-25T16:57:54.299Z,21.21
2022-08-25T17:00:25.491Z,22.16
2022-08-25T17:02:59.433Z,22.49
2022-08-25T17:05:29.237Z,23.59
2022-08-25T17:08:18.835Z,24.55
2022-08-25T17:10:47.818Z,26.86
2022-08-25T17:13:15.891Z,28.66
2022-08-25T17:15:46.933Z,30.11
2022-08-25T17:18:15.505Z,30.28
2022-08-25T17:20:45.275Z,30.75
2022-08-25T17:23:13.205Z,31.25
2022-08-25T17:25:43.328Z,31.97
2022-08-25T17:28:12.498Z,32.86
2022-08-25T17:30:41.871Z,32.66
2022-08-25T17:33:10.262Z,33.22
2022-08-25T17:35:43.177Z,33.25
2022-08-25T17:38:11.528Z,34.27
2022-08-25T17:40:40.323Z,34.28
2022-08-25T17:43:09.079Z,34.92
2022-08-25T17:45:39.658Z,35.61
2022-08-25T17:48:08.936Z,36.26
2022-08-25T17:50:39.422Z,36.46
2022-08-25T17:53:09.219Z,36.18
2022-08-25T17:55:38.911Z,35.65
2022-08-25T17:58:13.759Z,36.32
2022-08-25T18:00:45.713Z,36.50
2022-08-25T18:03:13.549Z,37.15
2022-08-25T18:05:41.944Z,37.12
2022-08-25T18:08:10.225Z,37.78
2022-08-25T18:10:39.120Z,37.78
2022-08-25T18:13:07.853Z,37.70
2022-08-25T18:15:36.330Z,38.14
2022-08-25T18:18:04.520Z,38.38
2022-08-25T18:20:32.897Z,38.21
2022-08-25T18:23:00.981Z,37.72
2022-08-25T18:25:29.396Z,38.93
2022-08-25T18:27:57.654Z,38.99
2022-08-25T18:30:27.405Z,38.71
2022-08-25T18:32:56.037Z,38.57
2022-08-25T18:35:26.651Z,39.23
2022-08-25T18:38:13.320Z,39.05
2022-08-25T18:40:42.001Z,39.67
2022-08-25T18:43:12.312Z,40.00
2022-08-25T18:45:44.293Z,40.44
2022-08-25T18:48:12.387Z,40.36
2022-08-25T18:50:43.171Z,40.77
2022-08-25T18:53:12.832Z,40.59
2022-08-25T18:55:41.104Z,40.72
2022-08-25T18:58:09.534Z,41.28
2022-08-25T19:00:41.848Z,41.27
2022-08-25T19:03:12.861Z,41.01
2022-08-25T19:05:45.147Z,41.21
2022-08-25T19:08:18.677Z,41.11
2022-08-25T19:10:53.064Z,42.09
2022-08-25T19:13:22.682Z,42.39
2022-08-25T19:15:52.535Z,42.33
2022-08-25T19:18:26.175Z,42.31
2022-08-25T19:20:58.480Z,42.48
2022-08-25T19:23:27.163Z,42.34
2022-08-25T19:25:54.938Z,43.21
2022-08-25T19:28:24.941Z,43.57
2022-08-25T19:30:52.497Z,43.44
2022-08-25T19:33:42.446Z,44.53
2022-08-25T19:36:09.021Z,45.10
2022-08-25T19:38:37.728Z,45.88
2022-08-25T19:41:10.524Z,46.12
2022-08-25T19:43:55.854Z,45.79
2022-08-25T19:46:32.714Z,46.63
2022-08-25T19:49:10.782Z,47.55
2022-08-25T19:51:41.062Z,48.44
2022-08-25T19:54:18.930Z,48.84
2022-08-25T19:56:54.673Z,49.53
2022-08-25T19:59:42.391Z,49.87
2022-08-25T20:02:17.488Z,50.31
2022-08-25T20:04:49.925Z,50.88
2022-08-25T20:07:24.170Z,50.93
2022-08-25T20:09:54.172Z,51.62
2022-08-25T20:12:24.144Z,51.92
2022-08-25T20:14:53.605Z,51.52
2022-08-25T20:17:26.192Z,51.52
2022-08-25T20:19:58.782Z,51.23
2022-08-25T20:22:32.856Z,51.18
2022-08-25T20:25:13.700Z,52.01
2022-08-25T20:27:50.651Z,52.08
2022-08-25T20:30:23.451Z,52.63
2022-08-25T20:32:53.057Z,52.27
2022-08-25T20:35:26.358Z,51.84
2022-08-25T20:37:56.770Z,52.37
2022-08-25T20:40:26.614Z,53.10
2022-08-25T20:42:56.474Z,53.70
2022-08-25T20:45:24.564Z,54.02
2022-08-25T20:47:52.078Z,54.15
2022-08-25T20:50:19.751Z,53.78
2022-08-25T20:52:48.588Z,53.44
2022-08-25T20:55:17.583Z,53.89
2022-08-25T20:57:46.925Z,53.38
2022-08-25T21:00:17.413Z,53.89
2022-08-25T21:02:46.397Z,53.65
2022-08-25T21:05:15.815Z,54.66
2022-08-25T21:07:43.923Z,54.79
2022-08-25T21:10:14.322Z,55.15
2022-08-25T21:12:45.052Z,54.08
2022-08-25T21:15:18.149Z,54.47
2022-08-25T21:17:50.155Z,54.22
2022-08-25T21:20:18.433Z,54.25
2022-08-25T21:22:46.691Z,54.88
2022-08-25T21:25:15.033Z,54.93
2022-08-25T21:27:43.606Z,54.91
2022-08-25T21:30:12.964Z,54.76
2022-08-25T21:32:41.023Z,55.91
2022-08-25T21:35:24.803Z,55.99
2022-08-25T21:37:53.893Z,55.70
2022-08-25T21:40:23.099Z,55.33
2022-08-25T21:42:51.929Z,55.25
2022-08-25T21:45:20.874Z,56.51
2022-08-25T21:47:49.662Z,57.48
2022-08-25T21:50:17.547Z,57.16
2022-08-25T21:52:45.692Z,57.89
2022-08-25T21:55:16.214Z,57.61
2022-08-25T21:57:44.060Z,57.56
2022-08-25T22:00:14.605Z,57.43
2022-08-25T22:02:45.946Z,56.97
2022-08-25T22:05:13.829Z,59.42
2022-08-25T22:07:43.932Z,59.54
2022-08-25T22:10:17.711Z,58.73
2022-08-25T22:12:49.069Z,58.21
2022-08-25T22:15:18.391Z,56.69
2022-08-25T22:17:48.207Z,57.26
2022-08-25T22:20:18.408Z,59.32
2022-08-25T22:22:46.038Z,60.68
2022-08-25T22:25:14.104Z,59.82
2022-08-25T22:27:42.753Z,59.76
2022-08-25T22:30:11.102Z,58.15
2022-08-25T22:32:39.020Z,58.11
2022-08-25T22:35:07.211Z,57.06
2022-08-25T22:37:35.543Z,58.13
2022-08-25T22:40:04.301Z,58.66
2022-08-25T22:42:32.613Z,60.50
2022-08-25T22:45:01.302Z,61.24
2022-08-25T22:47:29.628Z,62.83
2022-08-25T22:49:59.058Z,62.56
2022-08-25T22:52:33.717Z,63.07
2022-08-25T22:55:02.967Z,63.49
2022-08-25T22:57:31.769Z,64.55
2022-08-25T22:59:59.405Z,64.42
2022-08-25T23:02:30.349Z,63.94
2022-08-25T23:05:00.933Z,63.62
2022-08-25T23:07:29.712Z,62.48
2022-08-25T23:10:03.259Z,62.08
2022-08-25T23:12:30.898Z,62.93
2022-08-25T23:14:58.413Z,62.92
2022-08-25T23:17:29.295Z,62.88
2022-08-25T23:19:57.655Z,63.83
2022-08-25T23:22:27.027Z,65.13
2022-08-25T23:24:55.218Z,64.33
2022-08-25T23:27:24.968Z,65.34
2022-08-25T23:29:52.466Z,65.17
2022-08-25T23:32:20.983Z,65.11
2022-08-25T23:34:48.583Z,64.93
2022-08-25T23:37:18.756Z,63.90
2022-08-25T23:39:49.974Z,64.92
2022-08-25T23:42:19.834Z,65.84
2022-08-25T23:44:48.862Z,67.23
2022-08-25T23:47:17.761Z,66.85
2022-08-25T23:49:45.965Z,66.23
2022-08-25T23:52:17.219Z,66.59
2022-08-25T23:54:46.272Z,65.79
2022-08-25T23:57:14.003Z,66.55
2022-08-25T23:59:43.345Z,66.71
